createdAt,value
2017-10-09T00:02:02.534Z,5.67
2017-10-09T00:04:30.849Z,5.47
2017-10-09T00:06:59.144Z,5.37
2017-10-09T00:09:27.503Z,5.67
2017-10-09T00:11:56.459Z,5.00
2017-10-09T00:14:24.767Z,4.53
2017-10-09T00:16:53.085Z,5.70
2017-10-09T00:19:21.427Z,5.20
2017-10-09T00:21:51.471Z,5.30
2017-10-09T00:24:20.603Z,6.13
2017-10-09T00:26:53.434Z,5.40
2017-10-09T00:29:29.122Z,4.53
2017-10-09T00:31:58.533Z,4.97
2017-10-09T00:34:26.859Z,5.43
2017-10-09T00:36:55.255Z,4.97
2017-10-09T00:39:23.630Z,6.43
2017-10-09T00:41:51.987Z,6.73
2017-10-09T00:44:20.294Z,5.00
2017-10-09T00:46:48.710Z,4.90
2017-10-09T00:49:17.150Z,5.13
2017-10-09T00:51:45.516Z,5.80
2017-10-09T00:54:13.841Z,4.60
2017-10-09T00:56:42.917Z,4.60
2017-10-09T00:59:11.219Z,4.97
2017-10-09T01:01:39.517Z,5.50
2017-10-09T01:04:07.838Z,6.27
2017-10-09T01:06:36.129Z,4.70
2017-10-09T01:09:04.495Z,5.50
2017-10-09T01:11:32.831Z,4.73
2017-10-09T01:14:01.212Z,5.20
2017-10-09T01:16:29.661Z,5.37
2017-10-09T01:18:59.066Z,4.93
2017-10-09T01:21:27.359Z,5.30
2017-10-09T01:23:55.639Z,4.60
2017-10-09T01:26:24.001Z,5.10
2017-10-09T01:28:52.313Z,5.03
2017-10-09T01:31:20.656Z,5.17
2017-10-09T01:33:48.963Z,4.73
2017-10-09T01:36:17.242Z,5.10
2017-10-09T01:38:45.551Z,5.30
2017-10-09T01:41:13.901Z,4.13
2017-10-09T01:43:42.175Z,4.10
2017-10-09T01:46:10.492Z,4.97
2017-10-09T01:48:38.803Z,5.60
2017-10-09T01:51:07.847Z,4.90
2017-10-09T01:53:39.287Z,4.90
2017-10-09T01:56:07.616Z,4.77
2017-10-09T01:58:35.904Z,4.40
2017-10-09T02:01:05.818Z,4.73
2017-10-09T02:03:34.143Z,5.30
2017-10-09T02:06:02.481Z,4.60
2017-10-09T02:08:30.784Z,4.30
2017-10-09T02:10:59.098Z,4.70
2017-10-09T02:13:27.419Z,4.97
2017-10-09T02:15:55.689Z,3.97
2017-10-09T02:18:23.987Z,5.97
2017-10-09T02:20:52.309Z,5.37
2017-10-09T02:23:20.604Z,4.83
2017-10-09T02:25:48.888Z,5.47
2017-10-09T02:28:17.187Z,4.90
2017-10-09T02:30:45.514Z,4.07
2017-10-09T02:33:13.819Z,5.17
2017-10-09T02:35:42.099Z,4.50
2017-10-09T02:38:10.620Z,3.77
2017-10-09T02:40:38.924Z,4.80
2017-10-09T02:43:07.258Z,5.30
2017-10-09T02:45:35.655Z,5.10
2017-10-09T02:48:03.983Z,4.83
2017-10-09T02:50:33.062Z,4.60
2017-10-09T02:53:01.389Z,5.40
2017-10-09T02:55:30.584Z,4.73
2017-10-09T02:57:59.013Z,4.47
2017-10-09T03:00:27.319Z,5.43
2017-10-09T03:02:55.619Z,5.00
2017-10-09T03:05:24.690Z,4.97
2017-10-09T03:07:53.006Z,3.70
2017-10-09T03:10:21.333Z,4.93
2017-10-09T03:12:49.628Z,4.50
2017-10-09T03:15:17.926Z,4.87
2017-10-09T03:17:46.240Z,4.73
2017-10-09T03:20:14.524Z,7.23
2017-10-09T03:25:42.270Z,5.77
2017-10-09T03:28:11.345Z,4.93
2017-10-09T03:30:40.438Z,4.10
2017-10-09T03:33:08.774Z,4.17
2017-10-09T03:35:37.869Z,5.60
2017-10-09T03:38:06.161Z,5.27
2017-10-09T03:40:34.489Z,4.60
2017-10-09T03:43:03.599Z,5.47
2017-10-09T03:45:32.686Z,5.40
2017-10-09T03:48:01.024Z,5.13
2017-10-09T03:50:29.325Z,5.40
2017-10-09T03:52:58.393Z,5.70
2017-10-09T03:55:26.725Z,4.50
2017-10-09T03:57:55.017Z,4.33
2017-10-09T04:00:23.349Z,5.47
2017-10-09T04:02:51.675Z,5.30
2017-10-09T04:05:19.968Z,7.07
2017-10-09T04:07:48.299Z,5.90
2017-10-09T04:10:16.594Z,6.63
2017-10-09T04:12:44.892Z,6.67
2017-10-09T04:15:13.986Z,6.70
2017-10-09T04:17:42.300Z,6.50
2017-10-09T04:20:11.353Z,6.70
2017-10-09T04:22:39.676Z,7.57
2017-10-09T04:25:07.978Z,7.40
2017-10-09T04:27:36.312Z,7.07
2017-10-09T04:30:04.647Z,6.13
2017-10-09T04:32:33.710Z,5.53
2017-10-09T04:35:02.014Z,6.80
2017-10-09T04:37:31.080Z,6.50
2017-10-09T04:40:00.157Z,7.00
2017-10-09T04:42:28.466Z,6.20
2017-10-09T04:44:56.778Z,6.20
2017-10-09T04:47:25.075Z,6.33
2017-10-09T04:49:53.391Z,7.17
2017-10-09T04:52:21.721Z,5.63
2017-10-09T04:54:50.773Z,6.50
2017-10-09T04:57:19.065Z,6.80
2017-10-09T04:59:47.391Z,6.67
2017-10-09T05:02:15.709Z,6.23
2017-10-09T05:04:44.000Z,6.07
2017-10-09T05:07:12.305Z,6.90
2017-10-09T05:09:40.605Z,6.53
2017-10-09T05:12:08.930Z,6.50
2017-10-09T05:14:37.265Z,7.10
2017-10-09T05:17:06.330Z,6.80
2017-10-09T05:19:34.630Z,6.77
2017-10-09T05:22:02.960Z,7.23
2017-10-09T05:24:31.392Z,6.77
2017-10-09T05:27:00.455Z,6.43
2017-10-09T05:29:29.102Z,6.10
2017-10-09T05:31:57.430Z,6.23
2017-10-09T05:34:26.492Z,6.80
2017-10-09T05:36:54.797Z,8.33
2017-10-09T05:39:23.105Z,7.50
2017-10-09T05:41:51.459Z,6.90
2017-10-09T05:44:19.752Z,5.50
2017-10-09T05:46:48.061Z,5.87
2017-10-09T05:49:16.382Z,6.40
2017-10-09T05:51:44.680Z,7.20
2017-10-09T05:54:13.785Z,5.87
2017-10-09T05:56:42.098Z,6.90
2017-10-09T05:59:10.389Z,7.30
2017-10-09T06:01:38.710Z,7.30
2017-10-09T06:04:07.771Z,7.00
2017-10-09T06:06:36.109Z,8.40
2017-10-09T06:09:04.418Z,7.77
2017-10-09T06:11:32.713Z,6.30
2017-10-09T06:14:01.031Z,7.07
2017-10-09T06:16:29.400Z,5.83
2017-10-09T06:18:57.743Z,7.50
2017-10-09T06:21:26.816Z,7.70
2017-10-09T06:23:55.119Z,7.77
2017-10-09T06:26:24.193Z,7.87
2017-10-09T06:28:53.293Z,7.30
2017-10-09T06:31:21.587Z,7.70
2017-10-09T06:33:49.929Z,7.07
2017-10-09T06:36:18.417Z,8.03
2017-10-09T06:38:47.001Z,7.30
2017-10-09T06:41:15.287Z,7.27
2017-10-09T06:43:43.598Z,7.00
2017-10-09T06:46:11.933Z,7.20
2017-10-09T06:48:40.230Z,5.57
2017-10-09T06:51:08.547Z,7.60
2017-10-09T06:53:37.616Z,7.20
2017-10-09T06:56:06.702Z,6.50
2017-10-09T06:58:35.028Z,6.10
2017-10-09T07:01:03.347Z,7.00
2017-10-09T07:03:31.706Z,7.13
2017-10-09T07:06:00.007Z,8.53
2017-10-09T07:08:28.332Z,7.80
2017-10-09T07:10:56.658Z,8.47
2017-10-09T07:13:24.956Z,7.93
2017-10-09T07:15:53.278Z,7.70
2017-10-09T07:18:21.589Z,7.50
2017-10-09T07:20:50.641Z,7.83
2017-10-09T07:23:19.058Z,7.73
2017-10-09T07:25:47.350Z,8.10
2017-10-09T07:28:15.641Z,7.10
2017-10-09T07:30:44.781Z,6.70
2017-10-09T07:33:13.798Z,6.87
2017-10-09T07:35:43.065Z,8.67
2017-10-09T07:38:12.381Z,7.27
2017-10-09T07:40:40.677Z,6.13
2017-10-09T07:43:09.784Z,9.47
2017-10-09T07:45:38.093Z,6.60
2017-10-09T07:48:06.387Z,7.17
2017-10-09T07:50:34.751Z,8.40
2017-10-09T07:53:03.063Z,7.70
2017-10-09T07:55:31.374Z,6.83
2017-10-09T07:57:59.684Z,7.87
2017-10-09T08:00:28.744Z,7.63
2017-10-09T08:02:57.062Z,6.63
2017-10-09T08:05:25.409Z,7.23
2017-10-09T08:07:53.732Z,7.67
2017-10-09T08:10:22.066Z,6.67
2017-10-09T08:12:51.153Z,7.27
2017-10-09T08:15:19.449Z,7.23
2017-10-09T08:17:47.776Z,7.13
2017-10-09T08:20:16.112Z,6.10
2017-10-09T08:22:44.410Z,6.93
2017-10-09T08:25:13.552Z,6.80
2017-10-09T08:27:41.876Z,6.53
2017-10-09T08:30:11.978Z,6.63
2017-10-09T08:32:41.669Z,6.07
2017-10-09T08:35:10.741Z,7.43
2017-10-09T08:37:39.824Z,6.10
2017-10-09T08:40:08.335Z,6.17
2017-10-09T08:42:36.633Z,6.60
2017-10-09T08:45:05.697Z,7.30
2017-10-09T08:47:34.034Z,7.77
2017-10-09T08:50:02.329Z,7.23
2017-10-09T08:52:30.685Z,7.57
2017-10-09T08:54:59.802Z,7.27
2017-10-09T08:57:28.109Z,7.50
2017-10-09T08:59:57.202Z,7.00
2017-10-09T09:02:25.495Z,7.10
2017-10-09T09:04:53.817Z,8.10
2017-10-09T09:07:22.121Z,8.37
2017-10-09T09:09:50.453Z,7.20
2017-10-09T09:12:18.793Z,7.33
2017-10-09T09:14:47.105Z,8.20
2017-10-09T09:17:15.428Z,7.00
2017-10-09T09:19:43.745Z,7.70
2017-10-09T09:22:12.058Z,7.50
2017-10-09T09:24:42.196Z,6.87
2017-10-09T09:27:11.592Z,7.43
2017-10-09T09:29:39.922Z,8.70
2017-10-09T09:32:08.214Z,8.70
2017-10-09T09:34:37.278Z,8.03
2017-10-09T09:37:05.596Z,7.30
2017-10-09T09:39:33.893Z,7.53
2017-10-09T09:42:02.227Z,7.50
2017-10-09T09:44:30.561Z,8.37
2017-10-09T09:46:59.634Z,8.37
2017-10-09T09:49:28.941Z,9.00
2017-10-09T09:51:57.268Z,8.07
2017-10-09T09:54:26.400Z,7.57
2017-10-09T09:56:54.698Z,9.20
2017-10-09T09:59:23.791Z,7.97
2017-10-09T10:01:52.875Z,7.70
2017-10-09T10:04:21.302Z,8.40
2017-10-09T10:06:49.633Z,7.90
2017-10-09T10:09:18.700Z,6.97
2017-10-09T10:11:47.004Z,8.10
2017-10-09T10:14:15.325Z,7.10
2017-10-09T10:16:44.396Z,7.67
2017-10-09T10:19:13.516Z,6.57
2017-10-09T10:21:41.827Z,8.13
2017-10-09T10:24:10.909Z,7.40
2017-10-09T10:26:40.025Z,7.60
2017-10-09T10:29:08.353Z,6.90
2017-10-09T10:31:36.678Z,8.10
2017-10-09T10:34:05.739Z,6.57
2017-10-09T10:36:34.864Z,7.00
2017-10-09T10:39:03.160Z,6.57
2017-10-09T10:41:31.493Z,6.77
2017-10-09T10:43:59.953Z,7.30
2017-10-09T10:46:28.385Z,6.37
2017-10-09T10:48:56.700Z,6.40
2017-10-09T10:51:25.810Z,5.03
2017-10-09T10:53:54.121Z,6.50
2017-10-09T10:56:22.415Z,6.30
2017-10-09T10:58:50.761Z,6.27
2017-10-09T11:01:19.053Z,6.10
2017-10-09T11:03:47.345Z,5.57
2017-10-09T11:06:15.721Z,5.40
2017-10-09T11:08:44.785Z,4.80
2017-10-09T11:11:13.120Z,5.90
2017-10-09T11:13:41.439Z,4.90
2017-10-09T11:16:09.734Z,5.80
2017-10-09T11:18:38.065Z,5.37
2017-10-09T11:21:06.384Z,5.50
2017-10-09T11:23:34.702Z,5.87
2017-10-09T11:26:03.002Z,6.00
2017-10-09T11:28:31.381Z,6.40
2017-10-09T11:31:00.015Z,5.40
2017-10-09T11:33:28.429Z,5.20
2017-10-09T11:35:57.508Z,5.27
2017-10-09T11:38:26.872Z,5.30
2017-10-09T11:40:55.260Z,4.63
2017-10-09T11:43:24.325Z,4.23
2017-10-09T11:45:52.649Z,3.90
2017-10-09T11:48:20.953Z,3.97
2017-10-09T11:50:50.025Z,4.80
2017-10-09T11:53:19.109Z,4.20
2017-10-09T11:55:47.413Z,4.97
2017-10-09T11:58:15.735Z,5.23
2017-10-09T12:00:44.070Z,4.27
2017-10-09T12:03:12.366Z,4.63
2017-10-09T12:05:40.690Z,4.50
2017-10-09T12:08:08.997Z,4.90
2017-10-09T12:10:37.313Z,3.67
2017-10-09T12:13:05.619Z,4.80
2017-10-09T12:15:33.946Z,4.77
2017-10-09T12:18:03.555Z,4.37
2017-10-09T12:20:31.850Z,4.83
2017-10-09T12:23:00.623Z,3.30
2017-10-09T12:25:28.957Z,4.33
2017-10-09T12:27:57.443Z,4.13
2017-10-09T12:30:25.995Z,4.80
2017-10-09T12:32:54.438Z,3.60
2017-10-09T12:35:23.058Z,4.73
2017-10-09T12:37:51.467Z,4.50
2017-10-09T12:40:19.937Z,3.90
2017-10-09T12:42:48.461Z,4.67
2017-10-09T12:45:17.089Z,4.77
2017-10-09T12:47:46.846Z,3.77
2017-10-09T12:50:15.967Z,3.93
2017-10-09T12:52:44.608Z,3.60
2017-10-09T12:55:13.119Z,3.30
2017-10-09T12:57:41.564Z,2.83
2017-10-09T13:00:10.738Z,3.37
2017-10-09T13:02:39.227Z,4.00
2017-10-09T13:05:07.626Z,3.20
2017-10-09T13:07:36.261Z,2.53
2017-10-09T13:10:04.762Z,2.80
2017-10-09T13:12:33.955Z,3.00
2017-10-09T13:15:02.304Z,3.20
2017-10-09T13:17:30.605Z,3.07
2017-10-09T13:19:58.917Z,2.80
2017-10-09T13:22:27.237Z,3.40
2017-10-09T13:24:56.297Z,2.70
2017-10-09T13:27:25.457Z,2.90
2017-10-09T13:29:54.516Z,2.70
2017-10-09T13:32:23.430Z,2.83
2017-10-09T13:34:51.818Z,2.03
2017-10-09T13:37:20.118Z,2.53
2017-10-09T13:39:49.207Z,2.37
2017-10-09T13:42:17.541Z,2.00
2017-10-09T13:44:45.864Z,1.77
2017-10-09T13:47:14.169Z,1.80
2017-10-09T13:49:42.466Z,2.10
2017-10-09T13:52:10.805Z,2.00
2017-10-09T13:54:39.118Z,1.80
2017-10-09T13:57:07.455Z,2.20
2017-10-09T13:59:36.533Z,2.37
2017-10-09T14:02:05.630Z,2.47
2017-10-09T14:04:33.954Z,1.67
2017-10-09T14:07:02.284Z,2.07
2017-10-09T14:09:30.643Z,2.30
2017-10-09T14:11:58.972Z,3.40
2017-10-09T14:14:27.272Z,2.93
2017-10-09T14:16:55.604Z,3.00
2017-10-09T14:19:24.642Z,2.67
2017-10-09T14:21:53.010Z,3.17
2017-10-09T14:24:21.333Z,3.03
2017-10-09T14:26:50.420Z,2.90
2017-10-09T14:29:18.765Z,4.73
2017-10-09T14:41:41.079Z,3.60
2017-10-09T14:44:09.431Z,3.40
2017-10-09T14:46:37.762Z,3.70
2017-10-09T14:49:06.074Z,4.10
2017-10-09T14:51:35.135Z,3.90
2017-10-09T14:54:03.467Z,2.93
2017-10-09T14:56:31.843Z,3.60
2017-10-09T14:59:00.458Z,3.87
2017-10-09T15:01:28.856Z,4.43
2017-10-09T15:03:57.164Z,3.70
2017-10-09T15:06:25.488Z,3.80
2017-10-09T15:08:53.791Z,3.40
2017-10-09T15:11:22.887Z,3.60
2017-10-09T15:13:51.209Z,3.10
2017-10-09T15:16:19.502Z,3.40
2017-10-09T15:18:47.823Z,4.40
2017-10-09T15:21:16.143Z,4.43
2017-10-09T15:23:44.466Z,3.57
2017-10-09T15:26:12.828Z,4.20
2017-10-09T15:28:41.126Z,4.10
2017-10-09T15:31:09.462Z,4.10
2017-10-09T15:33:37.819Z,3.87
2017-10-09T15:36:06.879Z,4.80
2017-10-09T15:38:35.170Z,4.17
2017-10-09T15:41:03.509Z,3.90
2017-10-09T15:43:32.589Z,5.20
2017-10-09T15:46:01.709Z,4.60
2017-10-09T15:48:30.122Z,3.90
2017-10-09T15:50:58.546Z,4.80
2017-10-09T15:53:27.695Z,6.00
2017-10-09T15:55:55.996Z,4.33
2017-10-09T15:58:25.094Z,5.20
2017-10-09T16:00:53.449Z,5.40
2017-10-09T16:03:21.770Z,5.07
2017-10-09T16:05:50.088Z,5.30
2017-10-09T16:08:18.441Z,6.00
2017-10-09T16:10:46.760Z,5.40
2017-10-09T16:13:15.169Z,6.13
2017-10-09T16:15:43.531Z,6.07
2017-10-09T16:18:11.873Z,5.43
2017-10-09T16:20:40.214Z,5.53
2017-10-09T16:23:08.561Z,6.10
2017-10-09T16:25:36.910Z,5.90
2017-10-09T16:28:06.090Z,7.07
2017-10-09T16:30:35.186Z,7.20
2017-10-09T16:33:04.306Z,7.53
2017-10-09T16:35:32.657Z,7.57
2017-10-09T16:38:00.969Z,8.23
2017-10-09T16:40:29.736Z,7.97
2017-10-09T16:42:58.927Z,6.70
2017-10-09T16:45:28.273Z,6.30
2017-10-09T16:47:56.600Z,8.60
2017-10-09T16:50:24.939Z,8.03
2017-10-09T16:52:53.251Z,6.43
2017-10-09T16:55:21.555Z,7.60
2017-10-09T16:57:49.895Z,8.43
2017-10-09T17:00:18.235Z,7.53
2017-10-09T17:02:46.580Z,7.10
2017-10-09T17:05:14.894Z,7.00
2017-10-09T17:07:43.198Z,7.00
2017-10-09T17:10:12.318Z,7.40
2017-10-09T17:12:40.662Z,6.73
2017-10-09T17:15:08.998Z,6.17
2017-10-09T17:17:38.062Z,7.87
2017-10-09T17:20:07.265Z,8.33
2017-10-09T17:22:35.626Z,6.50
2017-10-09T17:25:04.034Z,7.40
2017-10-09T17:27:32.422Z,7.07
2017-10-09T17:30:00.757Z,6.63
2017-10-09T17:32:29.071Z,6.23
2017-10-09T17:34:57.422Z,6.37
2017-10-09T17:37:25.736Z,6.10
2017-10-09T17:39:54.054Z,6.63
2017-10-09T17:42:29.399Z,6.70
2017-10-09T17:44:57.846Z,7.33
2017-10-09T17:47:26.931Z,7.60
2017-10-09T17:49:55.284Z,7.40
2017-10-09T17:52:29.788Z,6.07
2017-10-09T17:54:58.851Z,5.93
2017-10-09T17:57:27.293Z,5.57
2017-10-09T17:59:55.648Z,6.03
2017-10-09T18:02:23.947Z,5.60
2017-10-09T18:04:52.293Z,6.10
2017-10-09T18:07:21.365Z,6.20
2017-10-09T18:09:49.702Z,5.10
2017-10-09T18:12:17.997Z,5.13
2017-10-09T18:17:46.333Z,5.53
2017-10-09T18:20:15.415Z,7.30
2017-10-09T18:22:43.743Z,5.30
2017-10-09T18:25:12.835Z,6.00
2017-10-09T18:27:41.638Z,5.63
2017-10-09T18:30:10.731Z,4.73
2017-10-09T18:32:39.141Z,5.37
2017-10-09T18:35:08.224Z,5.20
2017-10-09T18:37:36.572Z,6.10
2017-10-09T18:40:04.988Z,4.77
2017-10-09T18:42:34.109Z,5.20
2017-10-09T18:45:02.431Z,5.00
2017-10-09T18:47:30.760Z,5.20
2017-10-09T18:49:59.203Z,4.77
2017-10-09T18:52:27.501Z,4.23
2017-10-09T18:54:56.603Z,4.30
2017-10-09T18:57:24.989Z,4.80
2017-10-09T18:59:53.289Z,5.83
2017-10-09T19:02:22.392Z,7.67
2017-10-09T19:04:50.697Z,5.40
2017-10-09T19:07:19.776Z,5.40
2017-10-09T19:09:48.110Z,6.03
2017-10-09T19:12:17.179Z,5.60
2017-10-09T19:14:45.492Z,4.80
2017-10-09T19:17:13.910Z,4.50
2017-10-09T19:19:42.230Z,6.00
2017-10-09T19:22:11.305Z,5.23
2017-10-09T19:24:39.684Z,5.70
2017-10-09T19:27:08.387Z,5.57
2017-10-09T19:29:36.714Z,7.00
2017-10-09T19:32:05.063Z,5.00
2017-10-09T19:34:33.673Z,5.30
2017-10-09T19:37:03.453Z,5.30
2017-10-09T19:39:33.020Z,4.67
2017-10-09T19:42:02.401Z,6.20
2017-10-09T19:44:31.064Z,5.30
2017-10-09T19:47:01.165Z,5.50
2017-10-09T19:49:31.315Z,5.33
2017-10-09T19:52:00.167Z,5.03
2017-10-09T19:54:29.716Z,5.37
2017-10-09T19:57:02.948Z,5.23
2017-10-09T19:59:37.139Z,5.03
2017-10-09T20:04:50.112Z,4.90
2017-10-09T20:07:25.590Z,5.03
2017-10-09T20:10:01.568Z,4.43
2017-10-09T20:12:36.925Z,3.93
2017-10-09T20:15:10.488Z,4.00
2017-10-09T20:17:40.451Z,5.33
2017-10-09T20:20:13.497Z,4.47
2017-10-09T20:22:41.928Z,5.70
2017-10-09T20:25:11.429Z,4.70
2017-10-09T20:27:41.659Z,4.10
2017-10-09T20:30:11.886Z,5.00
2017-10-09T20:32:40.330Z,4.90
2017-10-09T20:35:10.395Z,5.07
2017-10-09T20:37:40.173Z,5.07
2017-10-09T20:40:08.801Z,5.43
2017-10-09T20:42:38.898Z,5.80
2017-10-09T20:45:14.404Z,5.23
2017-10-09T20:47:43.716Z,5.43
2017-10-09T20:50:12.095Z,4.90
2017-10-09T20:52:41.169Z,5.03
2017-10-09T20:55:11.135Z,6.30
2017-10-09T20:57:43.708Z,5.90
2017-10-09T21:00:26.500Z,4.87
2017-10-09T21:03:00.373Z,5.20
2017-10-09T21:05:29.908Z,5.73
2017-10-09T21:08:01.396Z,6.27
2017-10-09T21:10:29.824Z,6.30
2017-10-09T21:12:59.824Z,6.20
2017-10-09T21:15:29.723Z,6.10
2017-10-09T21:17:58.055Z,6.97
2017-10-09T21:20:27.204Z,6.00
2017-10-09T21:22:56.688Z,6.97
2017-10-09T21:25:26.058Z,7.13
2017-10-09T21:27:56.857Z,6.57
2017-10-09T21:30:26.297Z,5.87
2017-10-09T21:32:54.658Z,6.63
2017-10-09T21:35:22.997Z,5.93
2017-10-09T21:37:52.237Z,6.30
2017-10-09T21:40:20.612Z,6.60
2017-10-09T21:42:49.047Z,7.23
2017-10-09T21:45:17.356Z,6.97
2017-10-09T21:47:45.685Z,6.43
2017-10-09T21:50:14.788Z,6.87
2017-10-09T21:52:43.124Z,6.60
2017-10-09T21:55:12.183Z,7.17
2017-10-09T21:57:40.562Z,6.70
2017-10-09T22:00:10.477Z,6.43
2017-10-09T22:02:38.879Z,5.63
2017-10-09T22:05:07.217Z,7.00
2017-10-09T22:07:35.621Z,5.67
2017-10-09T22:10:04.053Z,5.70
2017-10-09T22:12:32.439Z,5.80
2017-10-09T22:15:00.810Z,6.57
2017-10-09T22:17:31.520Z,5.90
2017-10-09T22:20:01.221Z,6.00
2017-10-09T22:22:31.060Z,8.10
2017-10-09T22:24:59.475Z,5.50
2017-10-09T22:27:27.982Z,6.67
2017-10-09T22:29:56.305Z,5.10
2017-10-09T22:32:25.452Z,6.70
2017-10-09T22:34:53.813Z,5.07
2017-10-09T22:37:24.570Z,6.60
2017-10-09T22:39:56.679Z,5.43
2017-10-09T22:42:26.906Z,6.00
2017-10-09T22:44:56.119Z,6.00
2017-10-09T22:47:25.239Z,6.17
2017-10-09T22:49:53.581Z,6.47
2017-10-09T22:52:24.031Z,5.77
2017-10-09T22:54:53.085Z,6.50
2017-10-09T22:57:22.219Z,5.10
2017-10-09T22:59:51.513Z,6.57
2017-10-09T23:02:20.074Z,5.50
2017-10-09T23:04:52.167Z,5.87
2017-10-09T23:07:22.084Z,5.87
2017-10-09T23:09:51.449Z,6.43
2017-10-09T23:12:19.798Z,6.80
2017-10-09T23:14:52.487Z,5.90
2017-10-09T23:17:20.878Z,6.40
2017-10-09T23:19:50.288Z,6.27
2017-10-09T23:22:19.448Z,5.50
2017-10-09T23:24:47.844Z,6.30
2017-10-09T23:27:16.180Z,5.80
2017-10-09T23:29:44.544Z,5.20
2017-10-09T23:32:12.915Z,5.27
2017-10-09T23:34:41.195Z,6.90
2017-10-09T23:37:10.396Z,6.63
2017-10-09T23:39:39.471Z,6.50
2017-10-09T23:42:08.568Z,6.30
2017-10-09T23:44:36.922Z,6.70
2017-10-09T23:47:05.357Z,7.50
2017-10-09T23:49:36.573Z,6.50
2017-10-09T23:52:09.201Z,7.40
2017-10-09T23:54:38.392Z,6.60
2017-10-09T23:57:07.787Z,6.77
2017-10-09T23:59:38.082Z,6.63
